Hovedside
METAR-TAF:

METAR-TAF

Lufthavner :

Caracas, Venezuela

Simón Bolívar internasjonale lufthavn

breddegrad: 10-36N, lengdegrad: 066-59W, høyde over havet: 43 m

Gjeldene værobservasjon

Denne rapporten ble laget for 36 minutter siden, klokken 14:00 UTC
Vind 4 kt fra Nordøst
Temperatur 29°C
Luftfuktighet 66%
Trykk 1013 hPa
Sikt 10 km eller mer
Få skyer i en høyde av 1600 ft

METAR: SVMI 211400Z 05004KT 9999 FEW016 29/22 Q1013

Tid: 10:36 (14:36 UTC)

Varsel

Denne rapporten ble laget for 4 timer og 36 minutter siden, klokken 10:00 UTC
Varsel gyldig fra 21. klokken 12 UTC til 22. klokken 12 UTC
Vind 10 kt fra Øst
Sikt 10 km eller mer
Spredte skyer i en høyde av 1600 ft
Blir
fra 21. klokken 12 UTC til 21. klokken 16 UTC
Vind 10 kt fra Nord-nordøst

TAF: SVMI 211000Z 2112/2212 09010KT 9999 SCT016 TX33/19Z TN24/09Z BECMG 2112/2116 02010KT

Værobservasjoner og værvarsel for over 4000 flyplasser (METAR- og TAF-rapporter).

Tilgjengelige stasjoner er representert av de røde og gule prikkene på kartet.

Hold musepekeren over prikken for å se navnet på stasjonen.

Klikk så for å se værobservasjoner og -varsler.

For å forandre kartet kan du klikke på den grønne knappen med svart kryss for å zoome inn, på den grønne knappen med strek for å zoome ut, eller på de grønne pilene for å se tilstøtende kart.


METAR-TAF: